sensor_id;sensor_type;location;lat;lon;timestamp;pressure;altitude;pressure_sealevel;temperature;humidity
72857;BME280;62742;52.136;4.500;2022-08-07T00:01:47;102839.84;;;13.98;71.82
72857;BME280;62742;52.136;4.500;2022-08-07T00:04:14;102839.00;;;14.12;71.12
72857;BME280;62742;52.136;4.500;2022-08-07T00:06:41;102839.00;;;14.12;71.07
72857;BME280;62742;52.136;4.500;2022-08-07T00:09:08;102835.47;;;14.19;70.83
72857;BME280;62742;52.136;4.500;2022-08-07T00:11:35;102840.75;;;14.07;71.29
72857;BME280;62742;52.136;4.500;2022-08-07T00:14:01;102838.97;;;14.06;71.59
72857;BME280;62742;52.136;4.500;2022-08-07T00:16:28;102835.47;;;14.07;71.43
72857;BME280;62742;52.136;4.500;2022-08-07T00:18:54;102824.00;;;14.06;71.36
72857;BME280;62742;52.136;4.500;2022-08-07T00:21:21;102826.59;;;13.95;71.69
72857;BME280;62742;52.136;4.500;2022-08-07T00:23:48;102836.28;;;13.86;72.12
72857;BME280;62742;52.136;4.500;2022-08-07T00:26:14;102833.56;;;13.62;73.22
72857;BME280;62742;52.136;4.500;2022-08-07T00:28:41;102831.81;;;13.64;72.93
72857;BME280;62742;52.136;4.500;2022-08-07T00:31:09;102830.13;;;13.82;72.22
72857;BME280;62742;52.136;4.500;2022-08-07T00:33:37;102831.84;;;13.74;72.79
72857;BME280;62742;52.136;4.500;2022-08-07T00:36:06;102822.13;;;13.68;72.60
72857;BME280;62742;52.136;4.500;2022-08-07T00:38:34;102826.53;;;13.68;72.69
72857;BME280;62742;52.136;4.500;2022-08-07T00:41:03;102822.13;;;13.63;73.07
72857;BME280;62742;52.136;4.500;2022-08-07T00:43:31;102824.78;;;13.70;72.72
72857;BME280;62742;52.136;4.500;2022-08-07T00:45:59;102815.97;;;13.71;72.67
72857;BME280;62742;52.136;4.500;2022-08-07T00:48:26;102817.72;;;13.73;72.40
72857;BME280;62742;52.136;4.500;2022-08-07T00:50:53;102818.59;;;13.68;72.47
72857;BME280;62742;52.136;4.500;2022-08-07T00:53:21;102812.44;;;13.62;72.70
72857;BME280;62742;52.136;4.500;2022-08-07T00:55:48;102820.34;;;13.62;72.73
72857;BME280;62742;52.136;4.500;2022-08-07T00:58:15;102819.44;;;13.54;73.05
72857;BME280;62742;52.136;4.500;2022-08-07T01:00:43;102812.38;;;13.47;73.23
72857;BME280;62742;52.136;4.500;2022-08-07T01:03:10;102808.81;;;13.39;74.12
72857;BME280;62742;52.136;4.500;2022-08-07T01:05:36;102808.88;;;13.51;73.35
72857;BME280;62742;52.136;4.500;2022-08-07T01:08:05;102804.47;;;13.53;73.02
72857;BME280;62742;52.136;4.500;2022-08-07T01:10:32;102807.09;;;13.47;73.17
72857;BME280;62742;52.136;4.500;2022-08-07T01:12:58;102802.69;;;13.46;73.13
72857;BME280;62742;52.136;4.500;2022-08-07T01:15:25;102809.72;;;13.49;72.91
72857;BME280;62742;52.136;4.500;2022-08-07T01:17:53;102805.34;;;13.52;72.67
72857;BME280;62742;52.136;4.500;2022-08-07T01:20:22;102801.81;;;13.47;72.72
72857;BME280;62742;52.136;4.500;2022-08-07T01:22:56;102798.25;;;13.36;72.97
72857;BME280;62742;52.136;4.500;2022-08-07T01:25:23;102806.16;;;13.34;73.25
72857;BME280;62742;52.136;4.500;2022-08-07T01:27:50;102801.78;;;13.44;72.87
72857;BME280;62742;52.136;4.500;2022-08-07T01:30:17;102795.59;;;13.39;73.11
72857;BME280;62742;52.136;4.500;2022-08-07T01:32:44;102806.19;;;13.45;72.86
72857;BME280;62742;52.136;4.500;2022-08-07T01:35:11;102801.78;;;13.44;73.11
72857;BME280;62742;52.136;4.500;2022-08-07T01:37:37;102795.63;;;13.43;72.87
72857;BME280;62742;52.136;4.500;2022-08-07T01:40:05;102803.47;;;13.29;73.22
72857;BME280;62742;52.136;4.500;2022-08-07T01:42:33;102793.72;;;13.16;73.67
72857;BME280;62742;52.136;4.500;2022-08-07T01:45:03;102796.41;;;13.24;73.49
72857;BME280;62742;52.136;4.500;2022-08-07T01:47:32;102800.81;;;13.29;73.54
72857;BME280;62742;52.136;4.500;2022-08-07T01:49:59;102802.66;;;13.38;73.06
72857;BME280;62742;52.136;4.500;2022-08-07T01:52:28;102803.44;;;13.20;73.85
72857;BME280;62742;52.136;4.500;2022-08-07T01:54:59;102795.44;;;13.13;73.92
72857;BME280;62742;52.136;4.500;2022-08-07T01:57:27;102793.66;;;13.12;74.06
72857;BME280;62742;52.136;4.500;2022-08-07T02:00:07;102793.66;;;13.12;73.84
72857;BME280;62742;52.136;4.500;2022-08-07T02:02:56;102789.28;;;13.10;73.69
72857;BME280;62742;52.136;4.500;2022-08-07T02:05:38;102791.97;;;13.21;73.11
72857;BME280;62742;52.136;4.500;2022-08-07T02:08:21;102789.31;;;13.15;73.36
72857;BME280;62742;52.136;4.500;2022-08-07T02:10:51;102784.00;;;13.09;73.65
72857;BME280;62742;52.136;4.500;2022-08-07T02:13:23;102791.88;;;13.04;73.86
72857;BME280;62742;52.136;4.500;2022-08-07T02:15:52;102795.38;;;12.97;74.36
72857;BME280;62742;52.136;4.500;2022-08-07T02:18:22;102796.22;;;12.95;74.38
72857;BME280;62742;52.136;4.500;2022-08-07T02:20:51;102785.66;;;12.91;74.46
72857;BME280;62742;52.136;4.500;2022-08-07T02:23:21;102787.41;;;12.93;74.17
72857;BME280;62742;52.136;4.500;2022-08-07T02:25:52;102783.03;;;12.91;74.35
72857;BME280;62742;52.136;4.500;2022-08-07T02:28:22;102783.00;;;12.87;74.49
72857;BME280;62742;52.136;4.500;2022-08-07T02:30:52;102780.38;;;12.91;74.13
72857;BME280;62742;52.136;4.500;2022-08-07T02:33:24;102769.88;;;13.01;73.88
72857;BME280;62742;52.136;4.500;2022-08-07T02:35:55;102769.84;;;12.98;73.91
72857;BME280;62742;52.136;4.500;2022-08-07T02:38:27;102775.94;;;12.86;74.34
72857;BME280;62742;52.136;4.500;2022-08-07T02:40:59;102777.66;;;12.78;74.52
72857;BME280;62742;52.136;4.500;2022-08-07T02:43:27;102782.03;;;12.72;74.85
72857;BME280;62742;52.136;4.500;2022-08-07T02:45:57;102782.00;;;12.68;75.31
72857;BME280;62742;52.136;4.500;2022-08-07T02:48:26;102780.22;;;12.67;75.02
72857;BME280;62742;52.136;4.500;2022-08-07T02:50:53;102773.22;;;12.72;74.60
72857;BME280;62742;52.136;4.500;2022-08-07T02:53:24;102785.59;;;12.78;74.51
72857;BME280;62742;52.136;4.500;2022-08-07T02:55:58;102782.94;;;12.76;74.44
72857;BME280;62742;52.136;4.500;2022-08-07T02:58:29;102780.25;;;12.73;74.36
72857;BME280;62742;52.136;4.500;2022-08-07T03:00:58;102778.47;;;12.66;74.74
72857;BME280;62742;52.136;4.500;2022-08-07T03:03:29;102769.66;;;12.67;74.92
72857;BME280;62742;52.136;4.500;2022-08-07T03:05:59;102769.63;;;12.61;75.13
72857;BME280;62742;52.136;4.500;2022-08-07T03:08:28;102767.84;;;12.58;75.29
72857;BME280;62742;52.136;4.500;2022-08-07T03:10:56;102768.72;;;12.54;75.41
72857;BME280;62742;52.136;4.500;2022-08-07T03:13:24;102778.41;;;12.60;75.09
72857;BME280;62742;52.136;4.500;2022-08-07T03:15:51;102769.59;;;12.54;75.48
72857;BME280;62742;52.136;4.500;2022-08-07T03:18:20;102774.88;;;12.56;74.97
72857;BME280;62742;52.136;4.500;2022-08-07T03:20:47;102780.97;;;12.49;75.29
72857;BME280;62742;52.136;4.500;2022-08-07T03:23:15;102778.31;;;12.47;75.38
72857;BME280;62742;52.136;4.500;2022-08-07T03:25:45;102772.16;;;12.45;75.47
72857;BME280;62742;52.136;4.500;2022-08-07T03:28:15;102769.53;;;12.48;75.26
72857;BME280;62742;52.136;4.500;2022-08-07T03:30:44;102775.69;;;12.47;75.33
72857;BME280;62742;52.136;4.500;2022-08-07T03:33:12;102772.16;;;12.48;75.01
72857;BME280;62742;52.136;4.500;2022-08-07T03:35:40;102771.28;;;12.46;75.20
72857;BME280;62742;52.136;4.500;2022-08-07T03:38:08;102765.13;;;12.46;75.04
72857;BME280;62742;52.136;4.500;2022-08-07T03:40:37;102764.22;;;12.42;75.24
72857;BME280;62742;52.136;4.500;2022-08-07T03:43:05;102754.50;;;12.38;75.23
72857;BME280;62742;52.136;4.500;2022-08-07T03:45:32;102757.13;;;12.38;75.17
72857;BME280;62742;52.136;4.500;2022-08-07T03:48:00;102756.28;;;12.39;75.46
72857;BME280;62742;52.136;4.500;2022-08-07T03:50:28;102762.41;;;12.37;75.47
72857;BME280;62742;52.136;4.500;2022-08-07T03:52:57;102756.22;;;12.34;75.66
72857;BME280;62742;52.136;4.500;2022-08-07T03:55:27;102756.22;;;12.33;75.88
72857;BME280;62742;52.136;4.500;2022-08-07T03:57:54;102757.09;;;12.32;75.93
72857;BME280;62742;52.136;4.500;2022-08-07T04:00:23;102750.94;;;12.33;75.74
72857;BME280;62742;52.136;4.500;2022-08-07T04:02:51;102757.06;;;12.29;76.05
72857;BME280;62742;52.136;4.500;2022-08-07T04:05:20;102759.66;;;12.24;76.13
72857;BME280;62742;52.136;4.500;2022-08-07T04:07:47;102763.19;;;12.23;75.95
72857;BME280;62742;52.136;4.500;2022-08-07T04:10:15;102761.44;;;12.25;75.80
72857;BME280;62742;52.136;4.500;2022-08-07T04:12:41;102761.44;;;12.24;75.92
72857;BME280;62742;52.136;4.500;2022-08-07T04:15:09;102761.41;;;12.22;75.65
72857;BME280;62742;52.136;4.500;2022-08-07T04:17:37;102754.38;;;12.18;76.11
72857;BME280;62742;52.136;4.500;2022-08-07T04:20:08;102754.38;;;12.23;75.58
72857;BME280;62742;52.136;4.500;2022-08-07T04:22:38;102763.19;;;12.23;75.65
72857;BME280;62742;52.136;4.500;2022-08-07T04:25:07;102759.63;;;12.21;75.55
72857;BME280;62742;52.136;4.500;2022-08-07T04:27:35;102756.16;;;12.24;75.57
72857;BME280;62742;52.136;4.500;2022-08-07T04:30:03;102759.66;;;12.23;75.78
72857;BME280;62742;52.136;4.500;2022-08-07T04:32:31;102760.53;;;12.20;75.81
72857;BME280;62742;52.136;4.500;2022-08-07T04:35:02;102771.13;;;12.28;75.47
72857;BME280;62742;52.136;4.500;2022-08-07T04:37:30;102767.63;;;12.29;75.38
72857;BME280;62742;52.136;4.500;2022-08-07T04:39:58;102782.53;;;12.27;75.40
72857;BME280;62742;52.136;4.500;2022-08-07T04:42:24;102786.84;;;12.19;75.78
72857;BME280;62742;52.136;4.500;2022-08-07T04:44:56;102787.78;;;12.22;75.65
72857;BME280;62742;52.136;4.500;2022-08-07T04:50:37;102774.53;;;12.14;76.05
72857;BME280;62742;52.136;4.500;2022-08-07T04:53:20;102786.84;;;12.19;76.21
72857;BME280;62742;52.136;4.500;2022-08-07T04:56:40;102779.91;;;12.25;76.07
72857;BME280;62742;52.136;4.500;2022-08-07T04:58:59;102786.19;;;12.43;75.67
72857;BME280;62742;52.136;4.500;2022-08-07T05:04:55;102781.69;;;14.00;72.01
72857;BME280;62742;52.136;4.500;2022-08-07T05:07:47;102770.06;;;15.32;69.02
72857;BME280;62742;52.136;4.500;2022-08-07T05:10:37;102785.41;;;16.27;65.36
72857;BME280;62742;52.136;4.500;2022-08-07T05:13:17;102775.78;;;17.13;63.68
72857;BME280;62742;52.136;4.500;2022-08-07T05:15:51;102774.94;;;17.76;60.35
72857;BME280;62742;52.136;4.500;2022-08-07T05:18:24;102776.66;;;18.38;58.88
72857;BME280;62742;52.136;4.500;2022-08-07T05:20:58;102769.69;;;18.79;57.94
72857;BME280;62742;52.136;4.500;2022-08-07T05:23:44;102771.38;;;19.30;56.24
72857;BME280;62742;52.136;4.500;2022-08-07T05:26:21;102771.25;;;19.77;55.06
72857;BME280;62742;52.136;4.500;2022-08-07T05:28:52;102777.94;;;20.31;53.43
72857;BME280;62742;52.136;4.500;2022-08-07T05:31:24;102782.41;;;20.66;52.75
72857;BME280;62742;52.136;4.500;2022-08-07T05:33:56;102787.38;;;20.80;52.04
72857;BME280;62742;52.136;4.500;2022-08-07T05:36:24;102780.25;;;21.12;50.96
72857;BME280;62742;52.136;4.500;2022-08-07T05:38:55;102778.44;;;21.44;50.59
72857;BME280;62742;52.136;4.500;2022-08-07T05:41:23;102780.34;;;21.70;49.81
72857;BME280;62742;52.136;4.500;2022-08-07T05:43:53;102773.81;;;22.07;49.32
72857;BME280;62742;52.136;4.500;2022-08-07T05:46:22;102764.72;;;22.11;49.61
72857;BME280;62742;52.136;4.500;2022-08-07T05:48:50;102765.34;;;22.71;48.48
72857;BME280;62742;52.136;4.500;2022-08-07T05:51:18;102769.91;;;23.20;47.89
72857;BME280;62742;52.136;4.500;2022-08-07T05:53:46;102767.50;;;23.12;47.97
72857;BME280;62742;52.136;4.500;2022-08-07T05:56:14;102764.44;;;23.45;47.63
72857;BME280;62742;52.136;4.500;2022-08-07T05:58:45;102760.13;;;23.86;46.62
72857;BME280;62742;52.136;4.500;2022-08-07T06:01:14;102771.72;;;24.09;46.83
72857;BME280;62742;52.136;4.500;2022-08-07T06:03:47;102774.19;;;23.93;48.25
72857;BME280;62742;52.136;4.500;2022-08-07T06:06:18;102783.28;;;23.89;47.98
72857;BME280;62742;52.136;4.500;2022-08-07T06:08:46;102772.94;;;24.02;47.92
72857;BME280;62742;52.136;4.500;2022-08-07T06:11:14;102781.91;;;24.01;48.54
72857;BME280;62742;52.136;4.500;2022-08-07T06:13:42;102771.72;;;24.93;45.86
72857;BME280;62742;52.136;4.500;2022-08-07T06:16:08;102782.28;;;24.77;46.27
72857;BME280;62742;52.136;4.500;2022-08-07T06:18:35;102777.31;;;24.68;46.87
72857;BME280;62742;52.136;4.500;2022-08-07T06:21:04;102778.03;;;24.71;46.34
72857;BME280;62742;52.136;4.500;2022-08-07T06:23:32;102788.56;;;24.35;47.33
72857;BME280;62742;52.136;4.500;2022-08-07T06:25:59;102777.38;;;25.06;45.46
72857;BME280;62742;52.136;4.500;2022-08-07T06:28:27;102782.53;;;25.69;44.00
72857;BME280;62742;52.136;4.500;2022-08-07T06:30:54;102782.69;;;25.28;45.26
72857;BME280;62742;52.136;4.500;2022-08-07T06:33:21;102778.16;;;25.66;43.40
72857;BME280;62742;52.136;4.500;2022-08-07T06:35:50;102790.19;;;25.40;43.68
72857;BME280;62742;52.136;4.500;2022-08-07T06:38:16;102786.28;;;25.28;43.56
72857;BME280;62742;52.136;4.500;2022-08-07T06:40:47;102777.63;;;25.77;44.59
72857;BME280;62742;52.136;4.500;2022-08-07T06:43:20;102787.00;;;26.06;42.60
72857;BME280;62742;52.136;4.500;2022-08-07T06:45:50;102785.38;;;25.47;43.87
72857;BME280;62742;52.136;4.500;2022-08-07T06:48:16;102793.59;;;25.82;41.96
72857;BME280;62742;52.136;4.500;2022-08-07T06:50:44;102795.66;;;26.13;42.11
72857;BME280;62742;52.136;4.500;2022-08-07T06:53:13;102796.19;;;26.02;42.71
72857;BME280;62742;52.136;4.500;2022-08-07T06:55:41;102794.72;;;26.14;42.59
72857;BME280;62742;52.136;4.500;2022-08-07T06:58:10;102797.81;;;26.41;40.54
72857;BME280;62742;52.136;4.500;2022-08-07T07:00:40;102799.97;;;26.35;41.30
72857;BME280;62742;52.136;4.500;2022-08-07T07:03:11;102795.69;;;26.65;39.40
72857;BME280;62742;52.136;4.500;2022-08-07T07:05:39;102790.31;;;26.65;40.29
72857;BME280;62742;52.136;4.500;2022-08-07T07:08:06;102792.34;;;26.60;40.59
72857;BME280;62742;52.136;4.500;2022-08-07T07:10:34;102777.28;;;26.74;38.78
72857;BME280;62742;52.136;4.500;2022-08-07T07:15:45;102774.75;;;26.53;40.56
72857;BME280;62742;52.136;4.500;2022-08-07T07:18:21;102781.63;;;26.76;38.49
72857;BME280;62742;52.136;4.500;2022-08-07T07:21:02;102781.97;;;26.70;39.18
72857;BME280;62742;52.136;4.500;2022-08-07T07:23:33;102788.91;;;26.92;39.16
72857;BME280;62742;52.136;4.500;2022-08-07T07:26:02;102781.34;;;26.65;39.92
72857;BME280;62742;52.136;4.500;2022-08-07T07:29:00;102781.94;;;26.53;38.61
72857;BME280;62742;52.136;4.500;2022-08-07T07:31:34;102784.91;;;26.30;39.30
72857;BME280;62742;52.136;4.500;2022-08-07T07:34:12;102786.84;;;26.09;40.01
72857;BME280;62742;52.136;4.500;2022-08-07T07:36:43;102788.13;;;26.37;38.12
72857;BME280;62742;52.136;4.500;2022-08-07T07:39:12;102776.13;;;26.08;38.65
72857;BME280;62742;52.136;4.500;2022-08-07T07:41:44;102782.03;;;26.34;39.96
72857;BME280;62742;52.136;4.500;2022-08-07T07:44:15;102760.72;;;26.64;38.39
72857;BME280;62742;52.136;4.500;2022-08-07T07:46:47;102766.66;;;26.53;38.65
72857;BME280;62742;52.136;4.500;2022-08-07T07:49:17;102772.06;;;26.71;38.34
72857;BME280;62742;52.136;4.500;2022-08-07T07:51:47;102770.06;;;26.74;36.31
72857;BME280;62742;52.136;4.500;2022-08-07T07:54:16;102770.69;;;24.95;42.69
72857;BME280;62742;52.136;4.500;2022-08-07T07:56:45;102764.66;;;26.22;39.32
72857;BME280;62742;52.136;4.500;2022-08-07T07:59:14;102761.59;;;26.29;38.26
72857;BME280;62742;52.136;4.500;2022-08-07T08:01:44;102766.94;;;25.75;40.46
72857;BME280;62742;52.136;4.500;2022-08-07T08:04:14;102766.09;;;26.29;39.48
72857;BME280;62742;52.136;4.500;2022-08-07T08:06:44;102760.69;;;26.46;40.43
72857;BME280;62742;52.136;4.500;2022-08-07T08:09:15;102762.81;;;26.57;38.97
72857;BME280;62742;52.136;4.500;2022-08-07T08:11:44;102762.34;;;26.84;37.50
72857;BME280;62742;52.136;4.500;2022-08-07T08:14:12;102762.03;;;26.55;37.32
72857;BME280;62742;52.136;4.500;2022-08-07T08:16:41;102755.69;;;26.39;39.90
72857;BME280;62742;52.136;4.500;2022-08-07T08:19:15;102755.72;;;26.56;38.53
72857;BME280;62742;52.136;4.500;2022-08-07T08:21:48;102753.16;;;26.53;39.93
72857;BME280;62742;52.136;4.500;2022-08-07T08:24:38;102759.09;;;26.77;38.15
72857;BME280;62742;52.136;4.500;2022-08-07T08:27:30;102758.47;;;26.37;37.28
72857;BME280;62742;52.136;4.500;2022-08-07T08:30:06;102758.88;;;26.47;38.04
72857;BME280;62742;52.136;4.500;2022-08-07T08:32:39;102763.13;;;26.86;36.79
72857;BME280;62742;52.136;4.500;2022-08-07T08:35:16;102758.22;;;26.59;37.40
72857;BME280;62742;52.136;4.500;2022-08-07T08:37:46;102752.63;;;25.92;39.21
72857;BME280;62742;52.136;4.500;2022-08-07T08:40:21;102759.81;;;26.11;38.87
72857;BME280;62742;52.136;4.500;2022-08-07T08:43:19;102749.59;;;26.35;38.54
72857;BME280;62742;52.136;4.500;2022-08-07T08:46:05;102751.44;;;26.35;36.47
72857;BME280;62742;52.136;4.500;2022-08-07T08:49:01;102747.94;;;25.42;39.37
72857;BME280;62742;52.136;4.500;2022-08-07T08:57:33;102745.56;;;27.28;37.11
72857;BME280;62742;52.136;4.500;2022-08-07T09:00:07;102742.88;;;27.11;36.70
72857;BME280;62742;52.136;4.500;2022-08-07T09:02:53;102745.84;;;27.55;36.67
72857;BME280;62742;52.136;4.500;2022-08-07T09:05:50;102753.97;;;27.86;36.74
72857;BME280;62742;52.136;4.500;2022-08-07T09:08:40;102739.91;;;27.49;37.04
72857;BME280;62742;52.136;4.500;2022-08-07T09:14:31;102742.03;;;24.75;38.91
72857;BME280;62742;52.136;4.500;2022-08-07T09:23:52;102737.63;;;25.12;40.41
72857;BME280;62742;52.136;4.500;2022-08-07T09:26:52;102745.16;;;27.02;37.54
72857;BME280;62742;52.136;4.500;2022-08-07T09:43:47;102737.78;;;27.22;37.58
72857;BME280;62742;52.136;4.500;2022-08-07T09:52:46;102731.44;;;27.55;36.68
72857;BME280;62742;52.136;4.500;2022-08-07T09:55:19;102734.78;;;27.28;37.33
72857;BME280;62742;52.136;4.500;2022-08-07T09:58:13;102731.47;;;27.85;37.29
72857;BME280;62742;52.136;4.500;2022-08-07T10:04:27;102714.81;;;28.82;34.47
72857;BME280;62742;52.136;4.500;2022-08-07T10:10:22;102708.25;;;28.72;34.01
72857;BME280;62742;52.136;4.500;2022-08-07T10:21:39;102708.59;;;27.76;35.82
72857;BME280;62742;52.136;4.500;2022-08-07T10:30:34;102685.31;;;28.34;35.61
72857;BME280;62742;52.136;4.500;2022-08-07T10:36:32;102682.59;;;28.49;32.63
72857;BME280;62742;52.136;4.500;2022-08-07T10:39:45;102685.97;;;28.52;33.87
72857;BME280;62742;52.136;4.500;2022-08-07T10:42:33;102687.88;;;28.22;34.57
72857;BME280;62742;52.136;4.500;2022-08-07T10:51:20;102669.53;;;28.12;32.01
72857;BME280;62742;52.136;4.500;2022-08-07T10:54:14;102665.75;;;28.15;33.58
72857;BME280;62742;52.136;4.500;2022-08-07T10:57:13;102666.09;;;27.94;30.45
72857;BME280;62742;52.136;4.500;2022-08-07T11:00:10;102672.81;;;28.17;32.90
72857;BME280;62742;52.136;4.500;2022-08-07T11:02:49;102661.84;;;28.49;30.49
72857;BME280;62742;52.136;4.500;2022-08-07T11:05:35;102668.81;;;25.81;33.67
72857;BME280;62742;52.136;4.500;2022-08-07T11:11:38;102660.34;;;26.91;32.35
72857;BME280;62742;52.136;4.500;2022-08-07T11:14:16;102663.09;;;25.87;32.18
72857;BME280;62742;52.136;4.500;2022-08-07T11:16:53;102657.41;;;25.93;34.21
72857;BME280;62742;52.136;4.500;2022-08-07T11:19:42;102659.03;;;26.48;33.04
72857;BME280;62742;52.136;4.500;2022-08-07T11:22:20;102669.22;;;27.72;33.89
72857;BME280;62742;52.136;4.500;2022-08-07T11:25:22;102652.63;;;27.16;33.15
72857;BME280;62742;52.136;4.500;2022-08-07T11:28:05;102655.78;;;27.71;32.87
72857;BME280;62742;52.136;4.500;2022-08-07T11:30:44;102658.63;;;25.69;34.94
72857;BME280;62742;52.136;4.500;2022-08-07T11:36:08;102657.25;;;27.14;33.99
72857;BME280;62742;52.136;4.500;2022-08-07T11:38:49;102654.59;;;27.60;34.16
72857;BME280;62742;52.136;4.500;2022-08-07T11:41:34;102644.03;;;28.02;31.10
72857;BME280;62742;52.136;4.500;2022-08-07T11:44:35;102649.16;;;27.30;32.44
72857;BME280;62742;52.136;4.500;2022-08-07T11:55:58;102633.88;;;28.20;32.72
72857;BME280;62742;52.136;4.500;2022-08-07T12:01:52;102628.47;;;27.75;32.37
72857;BME280;62742;52.136;4.500;2022-08-07T12:10:46;102630.97;;;27.94;33.58
72857;BME280;62742;52.136;4.500;2022-08-07T12:16:19;102635.38;;;28.54;33.79
72857;BME280;62742;52.136;4.500;2022-08-07T12:19:17;102638.88;;;27.97;33.30
72857;BME280;62742;52.136;4.500;2022-08-07T12:28:26;102635.09;;;26.76;36.61
72857;BME280;62742;52.136;4.500;2022-08-07T12:34:23;102634.88;;;27.89;34.46
72857;BME280;62742;52.136;4.500;2022-08-07T12:36:54;102626.75;;;27.44;31.79
72857;BME280;62742;52.136;4.500;2022-08-07T12:39:24;102630.88;;;27.96;35.48
72857;BME280;62742;52.136;4.500;2022-08-07T12:41:55;102627.09;;;27.06;33.31
72857;BME280;62742;52.136;4.500;2022-08-07T12:44:25;102634.84;;;26.47;36.37
72857;BME280;62742;52.136;4.500;2022-08-07T12:47:16;102619.31;;;27.48;36.13
72857;BME280;62742;52.136;4.500;2022-08-07T12:50:31;102625.19;;;28.01;35.00
72857;BME280;62742;52.136;4.500;2022-08-07T12:53:14;102622.88;;;27.78;34.42
72857;BME280;62742;52.136;4.500;2022-08-07T12:56:03;102619.22;;;27.49;35.35
72857;BME280;62742;52.136;4.500;2022-08-07T12:58:39;102618.06;;;27.53;35.13
72857;BME280;62742;52.136;4.500;2022-08-07T13:01:29;102628.66;;;28.03;34.79
72857;BME280;62742;52.136;4.500;2022-08-07T13:19:57;102597.81;;;26.00;37.71
72857;BME280;62742;52.136;4.500;2022-08-07T13:22:33;102605.34;;;26.10;35.07
72857;BME280;62742;52.136;4.500;2022-08-07T13:25:13;102615.38;;;25.37;36.08
72857;BME280;62742;52.136;4.500;2022-08-07T13:27:57;102608.59;;;25.65;36.83
72857;BME280;62742;52.136;4.500;2022-08-07T13:30:41;102607.00;;;25.61;37.48
72857;BME280;62742;52.136;4.500;2022-08-07T13:36:24;102607.97;;;25.94;36.37
72857;BME280;62742;52.136;4.500;2022-08-07T13:39:09;102602.41;;;25.80;38.72
72857;BME280;62742;52.136;4.500;2022-08-07T13:41:52;102608.13;;;24.63;39.35
72857;BME280;62742;52.136;4.500;2022-08-07T13:44:24;102615.53;;;25.34;38.49
72857;BME280;62742;52.136;4.500;2022-08-07T13:46:59;102605.97;;;24.11;41.55
72857;BME280;62742;52.136;4.500;2022-08-07T13:49:33;102609.03;;;24.43;40.36
72857;BME280;62742;52.136;4.500;2022-08-07T13:52:04;102609.13;;;24.21;40.54
72857;BME280;62742;52.136;4.500;2022-08-07T13:54:33;102609.44;;;24.73;39.84
72857;BME280;62742;52.136;4.500;2022-08-07T13:57:03;102603.72;;;25.17;40.32
72857;BME280;62742;52.136;4.500;2022-08-07T13:59:42;102607.25;;;25.73;39.39
72857;BME280;62742;52.136;4.500;2022-08-07T14:02:22;102611.34;;;25.09;38.58
72857;BME280;62742;52.136;4.500;2022-08-07T14:04:56;102609.34;;;25.13;40.19
72857;BME280;62742;52.136;4.500;2022-08-07T14:07:28;102607.16;;;25.57;39.84
72857;BME280;62742;52.136;4.500;2022-08-07T14:10:00;102608.28;;;25.88;37.84
72857;BME280;62742;52.136;4.500;2022-08-07T14:15:03;102611.16;;;25.31;39.89
72857;BME280;62742;52.136;4.500;2022-08-07T14:17:36;102607.56;;;25.85;38.16
72857;BME280;62742;52.136;4.500;2022-08-07T14:20:18;102608.44;;;24.76;38.09
72857;BME280;62742;52.136;4.500;2022-08-07T14:22:50;102612.84;;;23.76;39.36
72857;BME280;62742;52.136;4.500;2022-08-07T14:25:27;102616.66;;;23.92;42.19
72857;BME280;62742;52.136;4.500;2022-08-07T14:28:03;102606.84;;;24.72;40.48
72857;BME280;62742;52.136;4.500;2022-08-07T14:30:36;102613.47;;;25.39;39.34
72857;BME280;62742;52.136;4.500;2022-08-07T14:33:08;102602.50;;;25.61;39.19
72857;BME280;62742;52.136;4.500;2022-08-07T14:35:36;102604.88;;;25.85;37.80
72857;BME280;62742;52.136;4.500;2022-08-07T14:38:05;102595.59;;;26.08;38.98
72857;BME280;62742;52.136;4.500;2022-08-07T14:40:34;102592.75;;;25.93;37.42
72857;BME280;62742;52.136;4.500;2022-08-07T14:43:07;102597.22;;;25.04;39.74
72857;BME280;62742;52.136;4.500;2022-08-07T14:45:47;102600.50;;;25.47;39.48
72857;BME280;62742;52.136;4.500;2022-08-07T14:48:19;102600.94;;;25.38;40.24
72857;BME280;62742;52.136;4.500;2022-08-07T14:50:52;102588.75;;;25.31;41.03
72857;BME280;62742;52.136;4.500;2022-08-07T14:53:25;102595.66;;;24.62;38.88
72857;BME280;62742;52.136;4.500;2022-08-07T14:55:56;102596.66;;;24.39;40.72
72857;BME280;62742;52.136;4.500;2022-08-07T14:58:32;102597.81;;;24.92;39.95
72857;BME280;62742;52.136;4.500;2022-08-07T15:01:04;102588.41;;;25.56;39.62
72857;BME280;62742;52.136;4.500;2022-08-07T15:03:33;102594.81;;;25.71;40.41
72857;BME280;62742;52.136;4.500;2022-08-07T15:06:02;102587.03;;;25.82;39.55
72857;BME280;62742;52.136;4.500;2022-08-07T15:08:37;102595.97;;;25.48;40.05
72857;BME280;62742;52.136;4.500;2022-08-07T15:11:18;102593.84;;;25.72;39.90
72857;BME280;62742;52.136;4.500;2022-08-07T15:13:55;102585.59;;;25.92;38.83
72857;BME280;62742;52.136;4.500;2022-08-07T15:16:58;102586.03;;;26.02;39.66
72857;BME280;62742;52.136;4.500;2022-08-07T15:19:34;102579.75;;;25.32;39.88
72857;BME280;62742;52.136;4.500;2022-08-07T15:22:04;102574.34;;;25.84;38.95
72857;BME280;62742;52.136;4.500;2022-08-07T15:24:35;102580.09;;;25.24;37.93
72857;BME280;62742;52.136;4.500;2022-08-07T15:29:48;102578.38;;;24.47;39.37
72857;BME280;62742;52.136;4.500;2022-08-07T15:32:21;102573.72;;;25.27;40.44
72857;BME280;62742;52.136;4.500;2022-08-07T15:34:53;102583.41;;;25.66;41.12
72857;BME280;62742;52.136;4.500;2022-08-07T15:37:30;102581.34;;;25.88;40.81
72857;BME280;62742;52.136;4.500;2022-08-07T15:40:03;102581.41;;;25.52;39.95
72857;BME280;62742;52.136;4.500;2022-08-07T15:45:27;102572.31;;;26.07;40.25